createdAt,value
2023-05-17T00:04:34.377Z,99.90
2023-05-17T00:09:37.464Z,99.90
2023-05-17T00:14:40.003Z,99.90
2023-05-17T00:19:42.619Z,99.90
2023-05-17T00:24:45.315Z,99.90
2023-05-17T00:29:47.790Z,99.90
2023-05-17T00:34:50.505Z,99.90
2023-05-17T00:39:54.184Z,99.90
2023-05-17T00:44:57.186Z,99.90
2023-05-17T00:50:00.014Z,99.90
2023-05-17T00:55:03.447Z,99.90
2023-05-17T01:00:07.026Z,99.90
2023-05-17T01:05:09.703Z,99.90
2023-05-17T01:10:12.657Z,99.90
2023-05-17T01:15:16.196Z,99.90
2023-05-17T01:20:29.145Z,99.90
2023-05-17T01:26:00.231Z,99.90
2023-05-17T01:31:03.977Z,99.90
2023-05-17T01:36:07.085Z,99.90
2023-05-17T01:41:33.201Z,99.90
2023-05-17T01:46:41.671Z,99.90
2023-05-17T01:52:19.225Z,99.90
2023-05-17T01:57:29.339Z,99.90
2023-05-17T02:02:32.087Z,99.90
2023-05-17T02:07:34.803Z,99.90
2023-05-17T02:12:37.452Z,99.90
2023-05-17T02:17:43.084Z,99.90
2023-05-17T02:22:45.933Z,99.90
2023-05-17T02:27:48.515Z,99.90
2023-05-17T02:32:52.333Z,99.90
2023-05-17T02:37:54.983Z,99.90
2023-05-17T02:42:57.702Z,99.90
2023-05-17T02:48:00.281Z,99.90
2023-05-17T02:53:02.943Z,99.90
2023-05-17T02:58:05.487Z,99.90
2023-05-17T03:03:09.042Z,99.90
2023-05-17T03:08:12.074Z,99.90
2023-05-17T03:13:14.781Z,99.90
2023-05-17T03:18:17.709Z,99.90
2023-05-17T03:28:38.321Z,99.90
2023-05-17T03:33:41.302Z,99.90
2023-05-17T03:38:44.131Z,99.90
2023-05-17T03:43:46.693Z,99.90
2023-05-17T03:53:59.377Z,99.90
2023-05-17T03:59:03.783Z,99.90
2023-05-17T04:09:11.255Z,99.90
2023-05-17T04:19:19.189Z,99.90
2023-05-17T04:24:22.010Z,99.90
2023-05-17T04:29:25.662Z,99.90
2023-05-17T04:34:28.363Z,99.90
2023-05-17T04:39:32.493Z,99.90
2023-05-17T04:49:38.737Z,99.90
2023-05-17T04:54:41.374Z,99.90
2023-05-17T05:09:53.323Z,99.90
2023-05-17T05:20:04.594Z,99.90
2023-05-17T05:25:07.921Z,99.90
2023-05-17T05:30:11.471Z,99.90
2023-05-17T05:35:14.511Z,99.90
2023-05-17T05:40:17.222Z,99.90
2023-05-17T05:45:21.720Z,99.90
2023-05-17T05:50:25.687Z,99.90
2023-05-17T05:55:32.754Z,99.90
2023-05-17T06:00:37.389Z,99.90
2023-05-17T06:05:40.720Z,99.90
2023-05-17T06:10:43.464Z,99.90
2023-05-17T06:15:46.049Z,99.90
2023-05-17T06:20:51.484Z,99.90
2023-05-17T06:25:54.048Z,99.90
2023-05-17T06:30:56.580Z,99.90
2023-05-17T06:41:09.222Z,99.90
2023-05-17T06:46:11.862Z,99.90
2023-05-17T06:51:14.850Z,99.90
2023-05-17T06:56:17.441Z,99.90
2023-05-17T07:01:20.594Z,99.90
2023-05-17T07:06:23.308Z,99.90
2023-05-17T07:11:25.864Z,99.90
2023-05-17T07:16:28.815Z,99.90
2023-05-17T07:21:32.390Z,99.90
2023-05-17T07:26:35.529Z,99.90
2023-05-17T07:31:38.109Z,99.90
2023-05-17T07:36:40.934Z,99.90
2023-05-17T07:41:43.755Z,99.90
2023-05-17T07:46:46.664Z,99.90
2023-05-17T07:51:49.278Z,99.90
2023-05-17T07:56:53.289Z,99.90
2023-05-17T08:01:56.241Z,99.90
2023-05-17T08:07:00.944Z,99.90
2023-05-17T08:12:03.650Z,99.90
2023-05-17T08:17:06.374Z,99.90
2023-05-17T08:22:09.557Z,99.90
2023-05-17T08:27:12.304Z,99.90
2023-05-17T08:32:14.813Z,99.90
2023-05-17T08:37:19.096Z,99.90
2023-05-17T08:42:27.922Z,99.90
2023-05-17T08:47:34.324Z,99.90
2023-05-17T08:52:38.157Z,99.90
2023-05-17T08:57:41.744Z,99.90
2023-05-17T09:02:44.279Z,99.90
2023-05-17T09:07:49.471Z,99.90
2023-05-17T09:12:53.596Z,99.90
2023-05-17T09:17:58.424Z,99.90
2023-05-17T09:23:02.121Z,99.90
2023-05-17T09:28:08.329Z,99.90
2023-05-17T09:33:13.248Z,99.90
2023-05-17T09:38:17.802Z,99.90
2023-05-17T09:43:25.975Z,99.90
2023-05-17T09:48:29.148Z,99.90
2023-05-17T09:53:33.856Z,99.90
2023-05-17T09:58:39.537Z,99.90
2023-05-17T10:03:42.652Z,99.90
2023-05-17T10:08:51.185Z,99.90
2023-05-17T10:14:05.318Z,99.90
2023-05-17T10:19:09.244Z,99.90
2023-05-17T10:24:12.556Z,99.90
2023-05-17T10:29:16.260Z,99.90
2023-05-17T10:34:20.346Z,99.90
2023-05-17T10:39:24.154Z,99.90
2023-05-17T10:44:27.702Z,99.20
2023-05-17T10:49:32.889Z,99.10
2023-05-17T10:54:39.410Z,99.90
2023-05-17T10:59:59.150Z,97.70
2023-05-17T11:05:02.497Z,98.00
2023-05-17T11:10:17.111Z,96.80
2023-05-17T11:15:25.675Z,96.50
2023-05-17T11:20:28.567Z,98.50
2023-05-17T11:25:36.474Z,99.90
2023-05-17T11:36:56.543Z,99.90
2023-05-17T11:41:59.195Z,99.90
2023-05-17T11:47:06.455Z,99.90
2023-05-17T11:52:10.339Z,99.90
2023-05-17T11:57:16.799Z,99.90
2023-05-17T12:02:33.054Z,99.90
2023-05-17T12:07:37.491Z,99.90
2023-05-17T12:12:41.616Z,99.90
2023-05-17T12:17:47.282Z,99.90
2023-05-17T12:22:55.628Z,99.90
2023-05-17T12:28:17.054Z,98.80
2023-05-17T12:33:20.209Z,99.00
2023-05-17T12:38:23.630Z,97.50
2023-05-17T12:43:26.454Z,98.50
2023-05-17T12:48:29.199Z,98.40
2023-05-17T12:53:43.014Z,99.30
2023-05-17T12:59:04.877Z,98.60
2023-05-17T13:04:07.751Z,98.30
2023-05-17T13:09:10.990Z,98.80
2023-05-17T13:14:13.836Z,99.90
2023-05-17T13:19:16.454Z,99.40
2023-05-17T13:24:19.149Z,99.90
2023-05-17T13:29:35.256Z,99.90
2023-05-17T13:34:41.916Z,99.90
2023-05-17T13:39:44.714Z,99.90
2023-05-17T13:44:48.649Z,99.90
2023-05-17T13:49:51.106Z,99.90
2023-05-17T13:54:53.800Z,99.90
2023-05-17T13:59:56.346Z,99.90
2023-05-17T14:04:59.207Z,99.90
2023-05-17T14:10:02.170Z,99.90
2023-05-17T14:15:05.203Z,99.90
2023-05-17T14:20:08.533Z,99.90
2023-05-17T14:25:11.782Z,99.90
2023-05-17T14:30:15.064Z,99.90
2023-05-17T14:35:18.426Z,99.90
2023-05-17T14:40:21.191Z,99.90
2023-05-17T14:45:23.825Z,99.90
2023-05-17T14:50:26.866Z,99.90
2023-05-17T14:55:30.055Z,99.90
2023-05-17T15:00:33.459Z,99.90
2023-05-17T15:05:36.298Z,99.90
2023-05-17T15:10:38.864Z,99.90
2023-05-17T15:15:42.893Z,99.90
2023-05-17T15:20:45.358Z,99.90
2023-05-17T15:25:47.855Z,99.90
2023-05-17T15:31:00.691Z,99.90
2023-05-17T15:36:03.332Z,99.90
2023-05-17T15:41:07.541Z,99.90
2023-05-17T15:46:10.346Z,99.90
2023-05-17T15:51:13.275Z,99.90
2023-05-17T15:56:17.594Z,99.90
2023-05-17T16:01:20.154Z,99.90
2023-05-17T16:06:22.774Z,99.90
2023-05-17T16:11:25.400Z,99.90
2023-05-17T16:16:27.938Z,99.90
2023-05-17T16:21:31.386Z,99.90
2023-05-17T16:26:35.764Z,99.90
2023-05-17T16:31:38.362Z,99.90
2023-05-17T16:36:40.873Z,99.90
2023-05-17T16:41:43.423Z,99.90
2023-05-17T16:46:46.227Z,99.90
2023-05-17T16:51:50.966Z,99.90
2023-05-17T16:56:53.546Z,99.90
2023-05-17T17:01:56.641Z,99.90
2023-05-17T17:06:59.287Z,99.90
2023-05-17T17:12:04.704Z,99.90
2023-05-17T17:17:15.282Z,99.90
2023-05-17T17:22:18.131Z,99.90
2023-05-17T17:27:20.711Z,99.90
2023-05-17T17:32:23.313Z,99.90
2023-05-17T17:42:31.430Z,99.90
2023-05-17T17:47:39.368Z,99.90
2023-05-17T17:52:42.025Z,99.90
2023-05-17T17:57:44.805Z,99.90
2023-05-17T18:02:47.432Z,99.90
2023-05-17T18:07:49.952Z,99.90
2023-05-17T18:12:52.495Z,99.90
2023-05-17T18:17:56.962Z,99.90
2023-05-17T18:22:59.579Z,99.90
2023-05-17T18:28:02.176Z,99.90
2023-05-17T18:33:07.062Z,99.90
2023-05-17T18:38:09.996Z,99.90
2023-05-17T18:43:12.991Z,99.90
2023-05-17T18:48:15.757Z,99.90
2023-05-17T18:53:18.673Z,99.90
2023-05-17T18:58:22.199Z,99.90
2023-05-17T19:03:24.826Z,99.90
2023-05-17T19:08:29.945Z,99.90
2023-05-17T19:13:33.280Z,99.90
2023-05-17T19:18:36.125Z,99.90
2023-05-17T19:23:39.393Z,99.90
2023-05-17T19:28:42.069Z,99.90
2023-05-17T19:33:44.756Z,99.90
2023-05-17T19:38:48.889Z,99.90
2023-05-17T19:43:54.339Z,99.90
2023-05-17T19:48:57.378Z,99.90
2023-05-17T19:59:07.851Z,99.90
2023-05-17T20:04:10.708Z,99.90
2023-05-17T20:09:13.444Z,99.90
2023-05-17T20:19:19.413Z,99.90
2023-05-17T20:29:27.380Z,99.90
2023-05-17T20:34:30.178Z,99.90
2023-05-17T20:39:32.898Z,99.90
2023-05-17T20:44:35.828Z,99.90
2023-05-17T20:49:38.716Z,99.90
2023-05-17T20:59:45.405Z,99.90
2023-05-17T21:04:47.951Z,99.90
2023-05-17T21:09:50.535Z,99.90
2023-05-17T21:15:07.968Z,99.90
2023-05-17T21:30:24.180Z,99.90
2023-05-17T21:40:29.861Z,99.90
2023-05-17T21:50:37.901Z,99.90
2023-05-17T22:01:03.930Z,99.90
2023-05-17T22:11:11.024Z,99.90
2023-05-17T22:26:20.066Z,99.90
2023-05-17T22:56:39.326Z,99.90
2023-05-17T23:01:42.055Z,99.90
2023-05-17T23:06:44.665Z,99.90
2023-05-17T23:11:47.530Z,99.90
2023-05-17T23:16:50.197Z,99.90
2023-05-17T23:21:52.730Z,99.90
2023-05-17T23:26:58.847Z,99.90
2023-05-17T23:32:01.634Z,99.90
2023-05-17T23:37:04.187Z,99.90
2023-05-17T23:42:06.955Z,99.90
2023-05-17T23:47:13.176Z,99.90
2023-05-17T23:52:18.832Z,99.90
2023-05-17T23:57:21.436Z,99.90
